Time,TemperatureF,DewpointF,PressureIn,WindDirection,WindDirectionDegrees,WindSpeedMPH,WindSpeedGustMPH,Humidity,HourlyPrecipIn,Conditions,Clouds,dailyrainin,SoftwareType,DateUTC
2013-05-06 00:00:00,44.8,42.0,30.22,SW,229,0.0,0.0,90,0.00,,,0.00,Wunderground v.1.15,2013-05-06 04:00:00,
2013-05-06 00:06:00,44.7,42.0,30.22,SW,229,0.0,0.0,90,0.00,,,0.00,weatherlink.com 1.10,2013-05-06 04:06:00,
2013-05-06 00:10:00,44.6,43.0,30.22,SW,229,0.0,0.0,94,0.00,,,0.00,Wunderground v.1.15,2013-05-06 04:10:00,
2013-05-06 00:20:00,44.5,41.7,30.22,SW,229,0.0,0.0,90,0.00,,,0.00,Wunderground v.1.15,2013-05-06 04:20:00,
2013-05-06 00:30:00,44.3,41.6,30.22,SW,229,0.0,0.0,90,0.00,,,0.00,Wunderground v.1.15,2013-05-06 04:30:00,
2013-05-06 00:36:00,44.3,42.0,30.22,SW,229,0.0,0.0,91,0.00,,,0.00,weatherlink.com 1.10,2013-05-06 04:36:00,
2013-05-06 00:40:00,44.2,41.7,30.22,SW,229,0.0,0.0,91,0.00,,,0.00,Wunderground v.1.15,2013-05-06 04:40:00,
2013-05-06 00:50:00,43.9,41.4,30.22,SW,229,0.0,0.0,91,0.00,,,0.00,Wunderground v.1.15,2013-05-06 04:50:00,
2013-05-06 01:00:00,43.6,41.1,30.22,SW,229,0.0,0.0,91,0.00,,,0.00,Wunderground v.1.15,2013-05-06 05:00:00,
2013-05-06 01:05:00,43.5,41.0,30.22,SW,229,0.0,0.0,91,0.00,,,0.00,weatherlink.com 1.10,2013-05-06 05:05:00,
2013-05-06 01:20:00,43.3,41.1,30.22,SW,229,0.0,0.0,92,0.00,,,0.00,Wunderground v.1.15,2013-05-06 05:20:00,
2013-05-06 01:30:00,43.1,40.9,30.22,SW,229,0.0,0.0,92,0.00,,,0.00,Wunderground v.1.15,2013-05-06 05:30:00,
2013-05-06 01:35:00,43.0,41.0,30.21,SW,229,0.0,0.0,92,0.00,,,0.00,weatherlink.com 1.10,2013-05-06 05:35:00,
2013-05-06 01:50:00,42.8,40.9,30.21,SW,229,0.0,0.0,93,0.00,,,0.00,Wunderground v.1.15,2013-05-06 05:50:00,
2013-05-06 02:00:00,42.7,40.8,30.21,SW,229,0.0,0.0,93,0.00,,,0.00,Wunderground v.1.15,2013-05-06 06:00:00,
2013-05-06 02:06:00,42.7,41.0,30.21,SW,229,0.0,0.0,93,0.00,,,0.00,weatherlink.com 1.10,2013-05-06 06:06:00,
2013-05-06 02:20:00,42.7,40.8,30.21,SW,229,0.0,0.0,93,0.00,,,0.00,Wunderground v.1.15,2013-05-06 06:20:00,
2013-05-06 02:30:00,42.4,40.5,30.20,SW,229,0.0,0.0,93,0.00,,,0.00,Wunderground v.1.15,2013-05-06 06:30:00,
2013-05-06 02:36:00,42.3,41.0,30.20,SW,229,0.0,0.0,93,0.00,,,0.00,weatherlink.com 1.10,2013-05-06 06:36:00,
2013-05-06 02:50:00,41.9,40.0,30.20,SW,229,0.0,0.0,93,0.00,,,0.00,Wunderground v.1.15,2013-05-06 06:50:00,
2013-05-06 03:00:00,41.8,40.2,30.20,SW,229,0.0,0.0,94,0.00,,,0.00,Wunderground v.1.15,2013-05-06 07:00:00,
2013-05-06 03:06:00,41.7,40.0,30.20,SW,229,0.0,0.0,94,0.00,,,0.00,weatherlink.com 1.10,2013-05-06 07:06:00,
2013-05-06 03:20:00,41.5,39.9,30.20,SW,229,0.0,0.0,94,0.00,,,0.00,Wunderground v.1.15,2013-05-06 07:20:00,
2013-05-06 03:30:00,41.5,39.9,30.20,SW,229,0.0,0.0,94,0.00,,,0.00,Wunderground v.1.15,2013-05-06 07:30:00,
2013-05-06 03:37:00,41.4,40.0,30.20,SW,229,0.0,0.0,94,0.00,,,0.00,weatherlink.com 1.10,2013-05-06 07:37:00,
2013-05-06 03:50:00,41.6,40.0,30.20,SW,229,0.0,0.0,94,0.00,,,0.00,Wunderground v.1.15,2013-05-06 07:50:00,
2013-05-06 04:00:00,41.5,39.9,30.20,SW,229,0.0,0.0,94,0.00,,,0.00,Wunderground v.1.15,2013-05-06 08:00:00,
2013-05-06 04:07:00,41.6,40.0,30.20,SW,229,0.0,0.0,95,0.00,,,0.00,weatherlink.com 1.10,2013-05-06 08:07:00,
2013-05-06 04:20:00,42.1,40.8,30.20,SW,229,0.0,0.0,95,0.00,,,0.00,Wunderground v.1.15,2013-05-06 08:20:00,
2013-05-06 04:30:00,42.8,41.7,30.21,SW,229,0.0,0.0,96,0.00,,,0.00,Wunderground v.1.15,2013-05-06 08:30:00,
2013-05-06 04:38:00,43.3,42.0,30.21,SW,229,0.0,0.0,96,0.00,,,0.00,weatherlink.com 1.10,2013-05-06 08:38:00,
2013-05-06 04:50:00,43.8,42.5,30.21,SW,229,0.0,0.0,95,0.00,,,0.00,Wunderground v.1.15,2013-05-06 08:50:00,
2013-05-06 05:00:00,44.2,42.9,30.21,SW,229,0.0,0.0,95,0.00,,,0.00,Wunderground v.1.15,2013-05-06 09:00:00,
2013-05-06 05:08:00,44.4,43.0,30.21,SW,229,0.0,0.0,95,0.00,,,0.00,weatherlink.com 1.10,2013-05-06 09:08:00,
2013-05-06 05:20:00,44.6,43.0,30.21,SW,229,0.0,0.0,94,0.00,,,0.00,Wunderground v.1.15,2013-05-06 09:20:00,
2013-05-06 05:30:00,44.7,43.1,30.22,SW,229,0.0,0.0,94,0.00,,,0.00,Wunderground v.1.15,2013-05-06 09:30:00,
2013-05-06 05:38:00,44.8,43.0,30.22,SW,229,0.0,1.0,94,0.00,,,0.00,weatherlink.com 1.10,2013-05-06 09:38:00,
2013-05-06 05:50:00,45.0,43.4,30.22,SW,229,0.0,0.0,94,0.00,,,0.00,Wunderground v.1.15,2013-05-06 09:50:00,
2013-05-06 06:00:00,45.1,43.2,30.23,SW,229,0.0,0.0,93,0.00,,,0.00,Wunderground v.1.15,2013-05-06 10:00:00,
2013-05-06 06:08:00,45.1,43.0,30.22,SW,229,0.0,3.0,93,0.00,,,0.00,weatherlink.com 1.10,2013-05-06 10:08:00,
2013-05-06 06:20:00,45.2,43.3,30.23,SW,229,0.0,0.0,93,0.00,,,0.00,Wunderground v.1.15,2013-05-06 10:20:00,
2013-05-06 06:30:00,45.3,43.4,30.23,SW,229,0.0,0.0,93,0.00,,,0.00,Wunderground v.1.15,2013-05-06 10:30:00,
2013-05-06 06:37:00,45.3,43.0,30.23,SW,229,0.0,2.0,93,0.00,,,0.00,weatherlink.com 1.10,2013-05-06 10:37:00,
2013-05-06 06:50:00,45.4,43.5,30.24,SW,229,0.0,0.0,93,0.00,,,0.00,Wunderground v.1.15,2013-05-06 10:50:00,
2013-05-06 07:00:00,45.5,43.6,30.23,SW,229,0.0,2.0,93,0.00,,,0.00,Wunderground v.1.15,2013-05-06 11:00:00,
2013-05-06 07:08:00,45.7,44.0,30.23,SW,229,0.0,3.0,93,0.00,,,0.00,weatherlink.com 1.10,2013-05-06 11:08:00,
2013-05-06 07:20:00,45.9,44.0,30.23,SW,229,0.0,0.0,93,0.00,,,0.00,Wunderground v.1.15,2013-05-06 11:20:00,
2013-05-06 07:30:00,46.4,44.5,30.24,SW,229,0.0,0.0,93,0.00,,,0.00,Wunderground v.1.15,2013-05-06 11:30:00,
2013-05-06 07:38:00,46.7,45.0,30.24,SW,229,0.0,1.0,92,0.00,,,0.00,weatherlink.com 1.10,2013-05-06 11:38:00,
2013-05-06 07:50:00,47.1,44.9,30.25,SE,125,1.0,1.0,92,0.00,,,0.00,Wunderground v.1.15,2013-05-06 11:50:00,
2013-05-06 08:00:00,47.2,44.7,30.24,ENE,70,1.0,1.0,91,0.00,,,0.00,Wunderground v.1.15,2013-05-06 12:00:00,
2013-05-06 08:09:00,47.4,45.0,30.24,ENE,74,0.0,1.0,91,0.00,,,0.00,weatherlink.com 1.10,2013-05-06 12:09:00,
2013-05-06 08:20:00,47.6,44.8,30.25,East,90,1.0,1.0,90,0.00,,,0.00,Wunderground v.1.15,2013-05-06 12:20:00,
2013-05-06 08:30:00,47.9,45.1,30.25,ENE,61,0.0,0.0,90,0.00,,,0.00,Wunderground v.1.15,2013-05-06 12:30:00,
2013-05-06 08:39:00,48.3,46.0,30.25,East,87,0.0,3.0,90,0.00,,,0.00,weatherlink.com 1.10,2013-05-06 12:39:00,
2013-05-06 08:50:00,48.8,45.7,30.25,ESE,103,0.0,2.0,89,0.00,,,0.00,Wunderground v.1.15,2013-05-06 12:50:00,
2013-05-06 09:00:00,49.2,45.8,30.25,East,100,0.0,3.0,88,0.00,,,0.00,Wunderground v.1.15,2013-05-06 13:00:00,
2013-05-06 09:09:00,49.4,46.0,30.25,East,98,0.0,3.0,88,0.00,,,0.00,weatherlink.com 1.10,2013-05-06 13:09:00,
2013-05-06 09:20:00,50.0,46.3,30.25,East,95,0.0,0.0,87,0.00,,,0.00,Wunderground v.1.15,2013-05-06 13:20:00,
2013-05-06 09:30:00,50.6,46.3,30.25,East,101,0.0,0.0,85,0.00,,,0.00,Wunderground v.1.15,2013-05-06 13:30:00,
2013-05-06 09:40:00,51.3,46.9,30.25,ENE,64,0.0,2.0,85,0.00,,,0.00,Wunderground v.1.15,2013-05-06 13:40:00,
2013-05-06 09:50:00,51.5,46.8,30.25,ENE,64,1.0,1.0,84,0.00,,,0.00,Wunderground v.1.15,2013-05-06 13:50:00,
2013-05-06 10:00:00,52.6,47.3,30.25,ENE,72,0.0,0.0,82,0.00,,,0.00,Wunderground v.1.15,2013-05-06 14:00:00,
2013-05-06 10:09:00,53.4,48.0,30.25,NE,51,0.0,4.0,81,0.00,,,0.00,weatherlink.com 1.10,2013-05-06 14:09:00,
2013-05-06 10:20:00,54.2,48.2,30.25,ENE,78,1.0,1.0,80,0.00,,,0.00,Wunderground v.1.15,2013-05-06 14:20:00,
2013-05-06 10:25:00,54.7,48.0,30.25,East,87,0.0,3.0,78,0.00,,,0.00,weatherlink.com 1.10,2013-05-06 14:25:00,
2013-05-06 10:39:00,55.8,49.0,30.24,ESE,115,1.0,4.0,77,0.00,,,0.00,weatherlink.com 1.10,2013-05-06 14:39:00,
2013-05-06 10:50:00,56.8,49.3,30.24,ESE,115,0.0,3.0,76,0.00,,,0.00,Wunderground v.1.15,2013-05-06 14:50:00,
2013-05-06 10:56:00,57.3,49.0,30.24,ESE,123,1.0,3.0,75,0.00,,,0.00,weatherlink.com 1.10,2013-05-06 14:56:00,
2013-05-06 11:10:00,57.2,49.0,30.24,SW,219,1.0,1.0,74,0.00,,,0.00,Wunderground v.1.15,2013-05-06 15:10:00,
2013-05-06 11:20:00,57.8,49.6,30.24,SSW,192,1.0,6.0,74,0.00,,,0.00,Wunderground v.1.15,2013-05-06 15:20:00,
2013-05-06 11:25:00,57.6,49.0,30.24,SSW,193,0.0,7.0,74,0.00,,,0.00,weatherlink.com 1.10,2013-05-06 15:25:00,
2013-05-06 11:40:00,58.4,49.8,30.24,South,188,1.0,2.0,73,0.00,,,0.00,Wunderground v.1.15,2013-05-06 15:40:00,
2013-05-06 11:50:00,59.0,50.7,30.23,SSE,167,1.0,1.0,74,0.00,,,0.00,Wunderground v.1.15,2013-05-06 15:50:00,
2013-05-06 11:56:00,59.5,50.0,30.23,SSE,167,0.0,4.0,72,0.00,,,0.00,weatherlink.com 1.10,2013-05-06 15:56:00,
2013-05-06 12:10:00,60.5,51.0,30.23,SSW,206,1.0,2.0,71,0.00,,,0.00,Wunderground v.1.15,2013-05-06 16:10:00,
2013-05-06 12:20:00,60.9,50.7,30.22,SSW,211,1.0,1.0,69,0.00,,,0.00,Wunderground v.1.15,2013-05-06 16:20:00,
2013-05-06 12:25:00,61.2,51.0,30.21,SSW,210,0.0,4.0,69,0.00,,,0.00,weatherlink.com 1.10,2013-05-06 16:25:00,
2013-05-06 12:40:00,61.7,51.0,30.21,South,190,1.0,1.0,68,0.00,,,0.00,Wunderground v.1.15,2013-05-06 16:40:00,
2013-05-06 12:50:00,62.2,51.1,30.20,South,184,1.0,1.0,67,0.00,,,0.00,Wunderground v.1.15,2013-05-06 16:50:00,
2013-05-06 12:57:00,62.5,51.0,30.20,East,96,0.0,4.0,66,0.00,,,0.00,weatherlink.com 1.10,2013-05-06 16:57:00,
2013-05-06 13:10:00,63.4,50.6,30.19,South,176,1.0,1.0,63,0.00,,,0.00,Wunderground v.1.15,2013-05-06 17:10:00,
2013-05-06 13:20:00,64.3,50.1,30.19,ESE,120,1.0,1.0,60,0.00,,,0.00,Wunderground v.1.15,2013-05-06 17:20:00,
2013-05-06 13:26:00,64.4,51.0,30.19,SSE,157,0.0,5.0,62,0.00,,,0.00,weatherlink.com 1.10,2013-05-06 17:26:00,
2013-05-06 13:40:00,65.2,51.0,30.19,South,183,1.0,2.0,60,0.00,,,0.00,Wunderground v.1.15,2013-05-06 17:40:00,
2013-05-06 13:50:00,65.7,51.4,30.19,South,171,1.0,1.0,60,0.00,,,0.00,Wunderground v.1.15,2013-05-06 17:50:00,
2013-05-06 13:57:00,65.7,50.0,30.18,ESE,113,0.0,8.0,58,0.00,,,0.00,weatherlink.com 1.10,2013-05-06 17:57:00,
2013-05-06 14:10:00,66.3,49.2,30.18,WSW,257,1.0,1.0,54,0.00,,,0.00,Wunderground v.1.15,2013-05-06 18:10:00,
2013-05-06 14:20:00,66.6,51.4,30.17,South,169,1.0,1.0,58,0.00,,,0.00,Wunderground v.1.15,2013-05-06 18:20:00,
2013-05-06 14:27:00,67.2,51.0,30.17,SSE,163,0.0,6.0,57,0.00,,,0.00,weatherlink.com 1.10,2013-05-06 18:27:00,
2013-05-06 14:40:00,67.0,51.3,30.17,SSW,194,3.0,4.0,57,0.00,,,0.00,Wunderground v.1.15,2013-05-06 18:40:00,
2013-05-06 14:50:00,67.5,51.2,30.16,South,183,1.0,1.0,56,0.00,,,0.00,Wunderground v.1.15,2013-05-06 18:50:00,
2013-05-06 14:57:00,67.7,51.0,30.16,ESE,113,0.0,7.0,55,0.00,,,0.00,weatherlink.com 1.10,2013-05-06 18:57:00,
2013-05-06 15:10:00,67.7,50.9,30.16,South,185,2.0,2.0,55,0.00,,,0.00,Wunderground v.1.15,2013-05-06 19:10:00,
2013-05-06 15:20:00,67.7,51.4,30.15,SSE,162,1.0,1.0,56,0.00,,,0.00,Wunderground v.1.15,2013-05-06 19:20:00,
2013-05-06 15:27:00,68.0,52.0,30.14,South,183,0.0,5.0,56,0.00,,,0.00,weatherlink.com 1.10,2013-05-06 19:27:00,
2013-05-06 15:40:00,68.8,52.5,30.14,WSW,243,1.0,2.0,56,0.00,,,0.00,Wunderground v.1.15,2013-05-06 19:40:00,
2013-05-06 15:50:00,68.5,51.7,30.14,SSW,200,2.0,3.0,55,0.00,,,0.00,Wunderground v.1.15,2013-05-06 19:50:00,
2013-05-06 15:58:00,68.7,52.0,30.14,South,189,3.0,4.0,56,0.00,,,0.00,weatherlink.com 1.10,2013-05-06 19:58:00,
2013-05-06 16:10:00,68.5,51.7,30.13,South,180,2.0,2.0,55,0.00,,,0.00,Wunderground v.1.15,2013-05-06 20:10:00,
2013-05-06 16:20:00,69.0,52.6,30.13,ESE,106,1.0,1.0,56,0.00,,,0.00,Wunderground v.1.15,2013-05-06 20:20:00,
2013-05-06 16:28:00,69.8,53.0,30.12,SE,126,0.0,3.0,56,0.00,,,0.00,weatherlink.com 1.10,2013-05-06 20:28:00,
2013-05-06 16:40:00,69.8,52.9,30.12,SSE,164,2.0,2.0,55,0.00,,,0.00,Wunderground v.1.15,2013-05-06 20:40:00,
2013-05-06 16:50:00,69.8,53.4,30.12,North,360,1.0,4.0,56,0.00,,,0.00,Wunderground v.1.15,2013-05-06 20:50:00,
2013-05-06 16:58:00,69.0,53.0,30.12,ESE,105,0.0,6.0,57,0.00,,,0.00,weatherlink.com 1.10,2013-05-06 20:58:00,
2013-05-06 17:10:00,69.0,54.1,30.12,WSW,248,1.0,1.0,59,0.00,,,0.00,Wunderground v.1.15,2013-05-06 21:10:00,
2013-05-06 17:20:00,69.0,54.1,30.12,South,188,2.0,2.0,59,0.00,,,0.00,Wunderground v.1.15,2013-05-06 21:20:00,
2013-05-06 17:28:00,68.5,54.0,30.12,South,186,0.0,8.0,60,0.00,,,0.00,weatherlink.com 1.10,2013-05-06 21:28:00,
2013-05-06 17:40:00,68.0,54.5,30.12,SSE,155,1.0,1.0,62,0.00,,,0.00,Wunderground v.1.15,2013-05-06 21:40:00,
2013-05-06 17:50:00,67.0,54.0,30.12,SSW,194,2.0,2.0,63,0.00,,,0.00,Wunderground v.1.15,2013-05-06 21:50:00,
2013-05-06 17:58:00,66.7,54.0,30.12,SW,227,2.0,4.0,65,0.00,,,0.00,weatherlink.com 1.10,2013-05-06 21:58:00,
2013-05-06 18:10:00,66.7,54.6,30.12,ESE,122,1.0,3.0,65,0.00,,,0.00,Wunderground v.1.15,2013-05-06 22:10:00,
2013-05-06 18:20:00,66.0,55.5,30.12,SSW,199,3.0,6.0,69,0.00,,,0.00,Wunderground v.1.15,2013-05-06 22:20:00,
2013-05-06 18:28:00,65.5,55.0,30.12,SSW,200,0.0,6.0,70,0.00,,,0.00,weatherlink.com 1.10,2013-05-06 22:28:00,
2013-05-06 18:40:00,65.5,55.5,30.12,South,180,2.0,2.0,70,0.00,,,0.00,Wunderground v.1.15,2013-05-06 22:40:00,
2013-05-06 18:50:00,64.7,55.1,30.13,SSW,210,2.0,4.0,71,0.00,,,0.00,Wunderground v.1.15,2013-05-06 22:50:00,
2013-05-06 18:58:00,64.2,55.0,30.13,South,190,0.0,6.0,72,0.00,,,0.00,weatherlink.com 1.10,2013-05-06 22:58:00,
2013-05-06 19:10:00,63.7,54.9,30.13,South,189,2.0,2.0,73,0.00,,,0.00,Wunderground v.1.15,2013-05-06 23:10:00,
2013-05-06 19:20:00,63.3,54.5,30.13,SW,217,0.0,2.0,73,0.00,,,0.00,Wunderground v.1.15,2013-05-06 23:20:00,
2013-05-06 19:29:00,62.8,54.0,30.13,South,174,2.0,7.0,74,0.00,,,0.00,weatherlink.com 1.10,2013-05-06 23:29:00,
2013-05-06 19:40:00,62.3,54.6,30.13,South,177,0.0,0.0,76,0.00,,,0.00,Wunderground v.1.15,2013-05-06 23:40:00,
2013-05-06 19:50:00,62.0,54.3,30.13,South,177,0.0,1.0,76,0.00,,,0.00,Wunderground v.1.15,2013-05-06 23:50:00,
2013-05-06 19:59:00,61.7,54.0,30.14,South,177,1.0,1.0,77,0.00,,,0.00,weatherlink.com 1.10,2013-05-06 23:59:00,
2013-05-06 20:10:00,61.4,54.5,30.14,South,177,0.0,0.0,78,0.00,,,0.00,Wunderground v.1.15,2013-05-07 00:10:00,
2013-05-06 20:20:00,61.0,54.1,30.14,South,177,0.0,0.0,78,0.00,,,0.00,Wunderground v.1.15,2013-05-07 00:20:00,
2013-05-06 20:30:00,60.5,53.6,30.14,South,177,0.0,0.0,78,0.00,,,0.00,Wunderground v.1.15,2013-05-07 00:30:00,
2013-05-06 20:40:00,60.1,53.2,30.14,South,177,0.0,0.0,78,0.00,,,0.00,Wunderground v.1.15,2013-05-07 00:40:00,
2013-05-06 20:50:00,59.7,53.2,30.15,South,177,0.0,0.0,79,0.00,,,0.00,Wunderground v.1.15,2013-05-07 00:50:00,
2013-05-06 21:00:00,59.2,53.0,30.15,South,177,0.0,0.0,80,0.00,,,0.00,Wunderground v.1.15,2013-05-07 01:00:00,
2013-05-06 21:10:00,58.7,52.5,30.15,South,177,0.0,0.0,80,0.00,,,0.00,Wunderground v.1.15,2013-05-07 01:10:00,
2013-05-06 21:20:00,58.2,52.4,30.16,South,177,0.0,0.0,81,0.00,,,0.00,Wunderground v.1.15,2013-05-07 01:20:00,
2013-05-06 21:29:00,57.7,52.0,30.16,South,177,0.0,0.0,82,0.00,,,0.00,weatherlink.com 1.10,2013-05-07 01:29:00,
2013-05-06 21:40:00,57.3,52.2,30.16,South,177,0.0,0.0,83,0.00,,,0.00,Wunderground v.1.15,2013-05-07 01:40:00,
2013-05-06 21:45:00,57.1,52.0,30.16,South,177,0.0,0.0,83,0.00,,,0.00,weatherlink.com 1.10,2013-05-07 01:45:00,
2013-05-06 21:59:00,56.6,52.0,30.16,South,177,0.0,0.0,83,0.00,,,0.00,weatherlink.com 1.10,2013-05-07 01:59:00,
2013-05-06 22:10:00,56.2,51.4,30.16,South,177,0.0,0.0,84,0.00,,,0.00,Wunderground v.1.15,2013-05-07 02:10:00,
2013-05-06 22:16:00,56.0,51.0,30.16,South,177,0.0,0.0,84,0.00,,,0.00,weatherlink.com 1.10,2013-05-07 02:16:00,
2013-05-06 22:31:00,55.4,51.0,30.16,South,177,0.0,0.0,85,0.00,,,0.00,weatherlink.com 1.10,2013-05-07 02:31:00,
2013-05-06 22:40:00,54.9,50.8,30.16,South,177,0.0,0.0,86,0.00,,,0.00,Wunderground v.1.15,2013-05-07 02:40:00,
2013-05-06 22:46:00,54.6,51.0,30.15,South,177,0.0,0.0,87,0.00,,,0.00,weatherlink.com 1.10,2013-05-07 02:46:00,
2013-05-06 23:00:00,53.8,50.3,30.15,South,177,0.0,0.0,88,0.00,,,0.00,Wunderground v.1.15,2013-05-07 03:00:00,
2013-05-06 23:10:00,53.4,50.2,30.15,South,177,0.0,0.0,89,0.00,,,0.00,Wunderground v.1.15,2013-05-07 03:10:00,
2013-05-06 23:15:00,53.1,50.0,30.15,South,177,0.0,0.0,89,0.00,,,0.00,weatherlink.com 1.10,2013-05-07 03:15:00,
2013-05-06 23:30:00,52.7,49.5,30.15,South,177,0.0,0.0,89,0.00,,,0.00,Wunderground v.1.15,2013-05-07 03:30:00,
2013-05-06 23:40:00,52.4,49.6,30.15,South,177,0.0,0.0,90,0.00,,,0.00,Wunderground v.1.15,2013-05-07 03:40:00,
2013-05-06 23:45:00,52.2,49.0,30.15,South,177,0.0,0.0,90,0.00,,,0.00,weatherlink.com 1.10,2013-05-07 03:45:00,